Estación Meteorológica Peña el Pijo (Robertgarden) [ 01/30/23 15:25:20 CET ]

Fecha Hora Presion(HPa) Temp (°C) Humedad % Rocio (°C) Viento ( m/s) Direccion Lluvia 1Hora(mm) Lluvia 24H(mm) LLuvia Total(mm)
2010-May-11 01:01:14 1002.700 9.9 74 5.5         112.92
2010-May-11 02:01:14 1002.900 10.8 74 6.4         112.92
2010-May-11 03:03:12 1002.600 10.8 73 6.2 0.5 NE     112.92
2010-May-11 04:01:16 1002.100 9.9 74 5.5         112.92
2010-May-11 05:01:16 1002.000 9.2 76 5.1         112.92
2010-May-11 06:01:17 1001.700 7.4 81 4.4         112.92
2010-May-11 07:01:13 1001.900 6.0 85 3.6         112.92
2010-May-11 08:01:13 1001.900 7.2 87 5.2         112.92
2010-May-11 09:01:13 1002.200 10.1 80 6.8         112.92
2010-May-11 10:01:14 1002.000 13.1 68 7.3         112.92
2010-May-11 11:01:13 1001.700 14.5 59 6.6         112.92
2010-May-11 12:01:18 1002.100 13.8 65 7.3         112.92
2010-May-11 13:01:14 1001.600 16.6 51 6.4         112.92
2010-May-11 14:01:11 1001.200 20.1 42 6.8         112.92
2010-May-11 15:01:13 1002.100 15.6 54 6.3         112.92
2010-May-11 16:01:14 1001.800 15.7 64 8.9         112.92
2010-May-11 17:01:12 1001.200 16.6 52 6.7         112.92
2010-May-11 18:01:13 1001.800 13.7 60 6.1         112.92
2010-May-11 19:01:12 1001.200 14.9 56 6.2         112.92
2010-May-11 20:01:13 1001.600 14.2 54 5.0         112.92
2010-May-11 21:01:16 1001.900 12.6 61 5.3         112.92
2010-May-11 22:01:14 1002.200 10.6 66 4.5         112.92
2010-May-11 23:01:14 1002.700 9.8 68 4.2         112.92

Temperatura Máxima:20°    Temperatura Mínima:
Presión Máxima:1002.900 Hpa    Presión Mínima:1001.200 Hpa


Volver